sensor_id;sensor_type;location;lat;lon;timestamp;P1;durP1;ratioP1;P2;durP2;ratioP2
13463;SDS011;6804;48.774;9.174;2023-09-30T00:00:22;7.90;;;4.73;;
13463;SDS011;6804;48.774;9.174;2023-09-30T00:02:50;6.83;;;4.00;;
13463;SDS011;6804;48.774;9.174;2023-09-30T00:05:18;6.60;;;3.80;;
13463;SDS011;6804;48.774;9.174;2023-09-30T00:07:53;6.73;;;3.23;;
13463;SDS011;6804;48.774;9.174;2023-09-30T00:10:20;5.30;;;3.50;;
13463;SDS011;6804;48.774;9.174;2023-09-30T00:12:51;6.67;;;3.73;;
13463;SDS011;6804;48.774;9.174;2023-09-30T00:15:19;5.93;;;3.53;;
13463;SDS011;6804;48.774;9.174;2023-09-30T00:17:49;6.60;;;3.63;;
13463;SDS011;6804;48.774;9.174;2023-09-30T00:20:17;7.03;;;3.90;;
13463;SDS011;6804;48.774;9.174;2023-09-30T00:22:48;4.10;;;2.53;;
13463;SDS011;6804;48.774;9.174;2023-09-30T00:25:18;4.80;;;2.70;;
13463;SDS011;6804;48.774;9.174;2023-09-30T00:27:48;5.53;;;2.83;;
13463;SDS011;6804;48.774;9.174;2023-09-30T00:30:19;4.77;;;2.97;;
13463;SDS011;6804;48.774;9.174;2023-09-30T00:32:47;6.27;;;3.73;;
13463;SDS011;6804;48.774;9.174;2023-09-30T00:35:17;6.70;;;3.10;;
13463;SDS011;6804;48.774;9.174;2023-09-30T00:37:48;5.10;;;3.03;;
13463;SDS011;6804;48.774;9.174;2023-09-30T00:40:20;6.13;;;2.97;;
13463;SDS011;6804;48.774;9.174;2023-09-30T00:42:47;5.67;;;3.00;;
13463;SDS011;6804;48.774;9.174;2023-09-30T00:45:16;5.03;;;3.23;;
13463;SDS011;6804;48.774;9.174;2023-09-30T00:47:44;5.00;;;2.90;;
13463;SDS011;6804;48.774;9.174;2023-09-30T00:50:11;4.60;;;2.47;;
13463;SDS011;6804;48.774;9.174;2023-09-30T00:52:39;3.60;;;2.43;;
13463;SDS011;6804;48.774;9.174;2023-09-30T00:55:14;4.37;;;2.53;;
13463;SDS011;6804;48.774;9.174;2023-09-30T00:57:44;3.33;;;2.33;;
13463;SDS011;6804;48.774;9.174;2023-09-30T01:00:12;4.23;;;2.13;;
13463;SDS011;6804;48.774;9.174;2023-09-30T01:02:44;3.50;;;2.47;;
13463;SDS011;6804;48.774;9.174;2023-09-30T01:05:12;4.97;;;2.50;;
13463;SDS011;6804;48.774;9.174;2023-09-30T01:07:43;4.70;;;2.43;;
13463;SDS011;6804;48.774;9.174;2023-09-30T01:10:11;3.33;;;2.23;;
13463;SDS011;6804;48.774;9.174;2023-09-30T01:12:39;3.63;;;2.30;;
13463;SDS011;6804;48.774;9.174;2023-09-30T01:15:13;3.77;;;2.30;;
13463;SDS011;6804;48.774;9.174;2023-09-30T01:17:41;2.90;;;1.93;;
13463;SDS011;6804;48.774;9.174;2023-09-30T01:20:11;3.93;;;2.33;;
13463;SDS011;6804;48.774;9.174;2023-09-30T01:22:46;2.90;;;2.10;;
13463;SDS011;6804;48.774;9.174;2023-09-30T01:25:13;3.83;;;2.13;;
13463;SDS011;6804;48.774;9.174;2023-09-30T01:27:44;3.47;;;2.37;;
13463;SDS011;6804;48.774;9.174;2023-09-30T01:30:11;3.13;;;1.90;;
13463;SDS011;6804;48.774;9.174;2023-09-30T01:32:39;2.87;;;2.40;;
13463;SDS011;6804;48.774;9.174;2023-09-30T01:35:07;3.97;;;1.97;;
13463;SDS011;6804;48.774;9.174;2023-09-30T01:37:46;5.33;;;2.73;;
13463;SDS011;6804;48.774;9.174;2023-09-30T01:40:14;5.70;;;2.37;;
13463;SDS011;6804;48.774;9.174;2023-09-30T01:42:43;9.53;;;2.67;;
13463;SDS011;6804;48.774;9.174;2023-09-30T01:45:11;3.57;;;2.53;;
13463;SDS011;6804;48.774;9.174;2023-09-30T01:47:39;3.83;;;2.43;;
13463;SDS011;6804;48.774;9.174;2023-09-30T01:50:09;4.37;;;2.53;;
13463;SDS011;6804;48.774;9.174;2023-09-30T01:52:42;3.87;;;2.37;;
13463;SDS011;6804;48.774;9.174;2023-09-30T01:55:11;3.63;;;2.30;;
13463;SDS011;6804;48.774;9.174;2023-09-30T01:57:39;4.33;;;2.30;;
13463;SDS011;6804;48.774;9.174;2023-09-30T02:00:09;3.83;;;2.00;;
13463;SDS011;6804;48.774;9.174;2023-09-30T02:02:38;3.90;;;2.00;;
13463;SDS011;6804;48.774;9.174;2023-09-30T02:05:09;2.67;;;1.83;;
13463;SDS011;6804;48.774;9.174;2023-09-30T02:07:54;3.77;;;2.17;;
13463;SDS011;6804;48.774;9.174;2023-09-30T02:10:22;5.53;;;2.70;;
13463;SDS011;6804;48.774;9.174;2023-09-30T02:12:50;3.13;;;2.20;;
13463;SDS011;6804;48.774;9.174;2023-09-30T02:15:19;3.90;;;2.60;;
13463;SDS011;6804;48.774;9.174;2023-09-30T02:17:48;4.37;;;2.90;;
13463;SDS011;6804;48.774;9.174;2023-09-30T02:20:16;4.07;;;2.70;;
13463;SDS011;6804;48.774;9.174;2023-09-30T02:22:44;3.63;;;2.17;;
13463;SDS011;6804;48.774;9.174;2023-09-30T02:25:17;4.77;;;2.73;;
13463;SDS011;6804;48.774;9.174;2023-09-30T02:27:44;3.97;;;2.77;;
13463;SDS011;6804;48.774;9.174;2023-09-30T02:30:12;5.17;;;2.63;;
13463;SDS011;6804;48.774;9.174;2023-09-30T02:32:41;3.67;;;2.37;;
13463;SDS011;6804;48.774;9.174;2023-09-30T02:35:12;4.70;;;2.67;;
13463;SDS011;6804;48.774;9.174;2023-09-30T02:37:42;6.07;;;2.60;;
13463;SDS011;6804;48.774;9.174;2023-09-30T02:40:13;4.33;;;2.70;;
13463;SDS011;6804;48.774;9.174;2023-09-30T02:42:44;3.87;;;2.50;;
13463;SDS011;6804;48.774;9.174;2023-09-30T02:45:12;4.10;;;3.07;;
13463;SDS011;6804;48.774;9.174;2023-09-30T02:47:42;5.37;;;3.10;;
13463;SDS011;6804;48.774;9.174;2023-09-30T02:50:10;4.97;;;2.97;;
13463;SDS011;6804;48.774;9.174;2023-09-30T02:52:41;4.13;;;2.60;;
13463;SDS011;6804;48.774;9.174;2023-09-30T02:55:12;4.43;;;2.93;;
13463;SDS011;6804;48.774;9.174;2023-09-30T02:57:45;4.73;;;2.80;;
13463;SDS011;6804;48.774;9.174;2023-09-30T03:00:16;5.20;;;3.63;;
13463;SDS011;6804;48.774;9.174;2023-09-30T03:02:49;5.17;;;3.13;;
13463;SDS011;6804;48.774;9.174;2023-09-30T03:05:22;5.83;;;2.67;;
13463;SDS011;6804;48.774;9.174;2023-09-30T03:07:52;4.90;;;2.83;;
13463;SDS011;6804;48.774;9.174;2023-09-30T03:10:23;4.63;;;2.63;;
13463;SDS011;6804;48.774;9.174;2023-09-30T03:12:58;6.73;;;3.13;;
13463;SDS011;6804;48.774;9.174;2023-09-30T03:15:29;5.23;;;2.70;;
13463;SDS011;6804;48.774;9.174;2023-09-30T03:17:58;4.10;;;2.80;;
13463;SDS011;6804;48.774;9.174;2023-09-30T03:20:25;4.60;;;2.73;;
13463;SDS011;6804;48.774;9.174;2023-09-30T03:22:53;4.20;;;2.70;;
13463;SDS011;6804;48.774;9.174;2023-09-30T03:25:24;4.67;;;2.60;;
13463;SDS011;6804;48.774;9.174;2023-09-30T03:27:55;5.60;;;2.83;;
13463;SDS011;6804;48.774;9.174;2023-09-30T03:30:26;5.97;;;2.90;;
13463;SDS011;6804;48.774;9.174;2023-09-30T03:33:02;3.17;;;2.77;;
13463;SDS011;6804;48.774;9.174;2023-09-30T03:35:32;4.97;;;2.83;;
13463;SDS011;6804;48.774;9.174;2023-09-30T03:38:03;6.37;;;2.73;;
13463;SDS011;6804;48.774;9.174;2023-09-30T03:40:32;4.47;;;2.20;;
13463;SDS011;6804;48.774;9.174;2023-09-30T03:43:00;6.20;;;3.03;;
13463;SDS011;6804;48.774;9.174;2023-09-30T03:45:30;4.67;;;2.90;;
13463;SDS011;6804;48.774;9.174;2023-09-30T03:48:09;3.73;;;3.10;;
13463;SDS011;6804;48.774;9.174;2023-09-30T03:50:42;5.23;;;2.83;;
13463;SDS011;6804;48.774;9.174;2023-09-30T03:53:14;3.03;;;2.50;;
13463;SDS011;6804;48.774;9.174;2023-09-30T03:55:46;4.93;;;2.50;;
13463;SDS011;6804;48.774;9.174;2023-09-30T03:58:17;4.50;;;2.53;;
13463;SDS011;6804;48.774;9.174;2023-09-30T04:00:47;5.77;;;2.90;;
13463;SDS011;6804;48.774;9.174;2023-09-30T04:03:17;4.60;;;2.63;;
13463;SDS011;6804;48.774;9.174;2023-09-30T04:05:47;4.97;;;2.70;;
13463;SDS011;6804;48.774;9.174;2023-09-30T04:08:18;5.40;;;2.70;;
13463;SDS011;6804;48.774;9.174;2023-09-30T04:10:47;5.17;;;3.17;;
13463;SDS011;6804;48.774;9.174;2023-09-30T04:13:17;5.87;;;2.70;;
13463;SDS011;6804;48.774;9.174;2023-09-30T04:15:48;6.37;;;2.50;;
13463;SDS011;6804;48.774;9.174;2023-09-30T04:18:16;4.80;;;2.60;;
13463;SDS011;6804;48.774;9.174;2023-09-30T04:20:45;5.87;;;2.60;;
13463;SDS011;6804;48.774;9.174;2023-09-30T04:23:20;3.90;;;2.30;;
13463;SDS011;6804;48.774;9.174;2023-09-30T04:25:50;5.10;;;2.70;;
13463;SDS011;6804;48.774;9.174;2023-09-30T04:28:18;4.90;;;2.40;;
13463;SDS011;6804;48.774;9.174;2023-09-30T04:30:48;6.27;;;3.07;;
13463;SDS011;6804;48.774;9.174;2023-09-30T04:33:18;4.40;;;2.70;;
13463;SDS011;6804;48.774;9.174;2023-09-30T04:35:49;4.97;;;2.73;;
13463;SDS011;6804;48.774;9.174;2023-09-30T04:38:21;5.53;;;2.70;;
13463;SDS011;6804;48.774;9.174;2023-09-30T04:40:51;4.73;;;3.13;;
13463;SDS011;6804;48.774;9.174;2023-09-30T04:43:22;3.93;;;2.70;;
13463;SDS011;6804;48.774;9.174;2023-09-30T04:45:52;4.17;;;3.23;;
13463;SDS011;6804;48.774;9.174;2023-09-30T04:51:13;5.73;;;2.87;;
13463;SDS011;6804;48.774;9.174;2023-09-30T04:53:44;6.13;;;2.87;;
13463;SDS011;6804;48.774;9.174;2023-09-30T04:56:13;4.77;;;2.90;;
13463;SDS011;6804;48.774;9.174;2023-09-30T05:01:31;5.13;;;3.03;;
13463;SDS011;6804;48.774;9.174;2023-09-30T05:04:01;4.67;;;2.70;;
13463;SDS011;6804;48.774;9.174;2023-09-30T05:06:28;7.13;;;2.50;;
13463;SDS011;6804;48.774;9.174;2023-09-30T05:09:01;4.83;;;3.03;;
13463;SDS011;6804;48.774;9.174;2023-09-30T05:11:28;5.20;;;2.70;;
13463;SDS011;6804;48.774;9.174;2023-09-30T05:13:58;4.93;;;2.73;;
13463;SDS011;6804;48.774;9.174;2023-09-30T05:16:26;4.93;;;2.73;;
13463;SDS011;6804;48.774;9.174;2023-09-30T05:21:46;3.77;;;2.60;;
13463;SDS011;6804;48.774;9.174;2023-09-30T05:24:20;4.20;;;2.53;;
13463;SDS011;6804;48.774;9.174;2023-09-30T05:26:49;5.70;;;3.17;;
13463;SDS011;6804;48.774;9.174;2023-09-30T05:32:06;6.13;;;3.30;;
13463;SDS011;6804;48.774;9.174;2023-09-30T05:34:42;4.57;;;2.60;;
13463;SDS011;6804;48.774;9.174;2023-09-30T05:37:12;4.13;;;2.47;;
13463;SDS011;6804;48.774;9.174;2023-09-30T05:39:41;4.20;;;2.60;;
13463;SDS011;6804;48.774;9.174;2023-09-30T05:42:09;5.07;;;2.80;;
13463;SDS011;6804;48.774;9.174;2023-09-30T05:44:37;6.53;;;3.17;;
13463;SDS011;6804;48.774;9.174;2023-09-30T05:47:06;5.07;;;3.23;;
13463;SDS011;6804;48.774;9.174;2023-09-30T05:52:09;5.57;;;2.60;;
13463;SDS011;6804;48.774;9.174;2023-09-30T05:54:40;4.23;;;2.57;;
13463;SDS011;6804;48.774;9.174;2023-09-30T05:57:08;4.73;;;2.73;;
13463;SDS011;6804;48.774;9.174;2023-09-30T05:59:41;4.53;;;3.00;;
13463;SDS011;6804;48.774;9.174;2023-09-30T06:02:10;6.43;;;3.03;;
13463;SDS011;6804;48.774;9.174;2023-09-30T06:04:38;5.10;;;2.63;;
13463;SDS011;6804;48.774;9.174;2023-09-30T06:07:10;4.43;;;2.50;;
13463;SDS011;6804;48.774;9.174;2023-09-30T06:09:38;4.83;;;2.57;;
13463;SDS011;6804;48.774;9.174;2023-09-30T06:12:09;5.47;;;3.07;;
13463;SDS011;6804;48.774;9.174;2023-09-30T06:14:37;5.07;;;2.90;;
13463;SDS011;6804;48.774;9.174;2023-09-30T06:17:09;7.17;;;3.67;;
13463;SDS011;6804;48.774;9.174;2023-09-30T06:22:16;6.13;;;3.43;;
13463;SDS011;6804;48.774;9.174;2023-09-30T06:24:50;5.20;;;2.87;;
13463;SDS011;6804;48.774;9.174;2023-09-30T06:27:18;5.53;;;2.70;;
13463;SDS011;6804;48.774;9.174;2023-09-30T06:29:46;5.53;;;3.30;;
13463;SDS011;6804;48.774;9.174;2023-09-30T06:32:14;4.53;;;2.93;;
13463;SDS011;6804;48.774;9.174;2023-09-30T06:34:43;9.93;;;3.30;;
13463;SDS011;6804;48.774;9.174;2023-09-30T06:37:11;5.30;;;3.33;;
13463;SDS011;6804;48.774;9.174;2023-09-30T06:39:40;8.03;;;3.13;;
13463;SDS011;6804;48.774;9.174;2023-09-30T06:42:08;5.73;;;3.03;;
13463;SDS011;6804;48.774;9.174;2023-09-30T06:44:36;6.30;;;3.10;;
13463;SDS011;6804;48.774;9.174;2023-09-30T06:47:08;7.67;;;3.00;;
13463;SDS011;6804;48.774;9.174;2023-09-30T06:49:38;4.57;;;3.20;;
13463;SDS011;6804;48.774;9.174;2023-09-30T06:52:10;5.50;;;3.63;;
13463;SDS011;6804;48.774;9.174;2023-09-30T06:54:45;7.97;;;3.43;;
13463;SDS011;6804;48.774;9.174;2023-09-30T06:57:13;6.07;;;2.93;;
13463;SDS011;6804;48.774;9.174;2023-09-30T06:59:41;6.07;;;2.80;;
13463;SDS011;6804;48.774;9.174;2023-09-30T07:02:10;5.43;;;3.07;;
13463;SDS011;6804;48.774;9.174;2023-09-30T07:04:38;7.47;;;3.43;;
13463;SDS011;6804;48.774;9.174;2023-09-30T07:07:06;4.57;;;2.90;;
13463;SDS011;6804;48.774;9.174;2023-09-30T07:09:35;7.63;;;3.80;;
13463;SDS011;6804;48.774;9.174;2023-09-30T07:12:05;7.07;;;2.83;;
13463;SDS011;6804;48.774;9.174;2023-09-30T07:14:34;8.47;;;3.73;;
13463;SDS011;6804;48.774;9.174;2023-09-30T07:17:02;7.00;;;3.30;;
13463;SDS011;6804;48.774;9.174;2023-09-30T07:19:31;4.53;;;3.07;;
13463;SDS011;6804;48.774;9.174;2023-09-30T07:22:00;6.77;;;3.30;;
13463;SDS011;6804;48.774;9.174;2023-09-30T07:27:24;6.97;;;3.27;;
13463;SDS011;6804;48.774;9.174;2023-09-30T07:29:53;10.80;;;3.30;;
13463;SDS011;6804;48.774;9.174;2023-09-30T07:32:21;5.77;;;2.90;;
13463;SDS011;6804;48.774;9.174;2023-09-30T07:34:49;8.00;;;3.23;;
13463;SDS011;6804;48.774;9.174;2023-09-30T07:37:27;5.43;;;3.27;;
13463;SDS011;6804;48.774;9.174;2023-09-30T07:39:55;6.43;;;3.00;;
13463;SDS011;6804;48.774;9.174;2023-09-30T07:42:26;5.33;;;3.10;;
13463;SDS011;6804;48.774;9.174;2023-09-30T07:48:00;7.83;;;3.67;;
13463;SDS011;6804;48.774;9.174;2023-09-30T07:50:30;8.17;;;3.90;;
13463;SDS011;6804;48.774;9.174;2023-09-30T07:53:03;7.10;;;3.43;;
13463;SDS011;6804;48.774;9.174;2023-09-30T07:55:32;5.37;;;3.33;;
13463;SDS011;6804;48.774;9.174;2023-09-30T07:58:04;4.80;;;3.23;;
13463;SDS011;6804;48.774;9.174;2023-09-30T08:00:33;8.23;;;3.87;;
13463;SDS011;6804;48.774;9.174;2023-09-30T08:05:33;6.50;;;3.40;;
13463;SDS011;6804;48.774;9.174;2023-09-30T08:10:49;5.87;;;3.40;;
13463;SDS011;6804;48.774;9.174;2023-09-30T08:13:23;4.57;;;3.03;;
13463;SDS011;6804;48.774;9.174;2023-09-30T08:15:52;5.97;;;3.40;;
13463;SDS011;6804;48.774;9.174;2023-09-30T08:18:22;5.97;;;3.70;;
13463;SDS011;6804;48.774;9.174;2023-09-30T08:20:50;10.10;;;3.77;;
13463;SDS011;6804;48.774;9.174;2023-09-30T08:23:24;4.93;;;3.57;;
13463;SDS011;6804;48.774;9.174;2023-09-30T08:25:52;6.83;;;3.83;;
13463;SDS011;6804;48.774;9.174;2023-09-30T08:28:28;5.77;;;4.17;;
13463;SDS011;6804;48.774;9.174;2023-09-30T08:31:01;7.33;;;3.97;;
13463;SDS011;6804;48.774;9.174;2023-09-30T08:33:36;5.37;;;3.87;;
13463;SDS011;6804;48.774;9.174;2023-09-30T08:36:06;4.83;;;3.13;;
13463;SDS011;6804;48.774;9.174;2023-09-30T08:38:38;7.67;;;3.90;;
13463;SDS011;6804;48.774;9.174;2023-09-30T08:41:14;4.67;;;3.20;;
13463;SDS011;6804;48.774;9.174;2023-09-30T08:44:01;6.47;;;3.45;;
13463;SDS011;6804;48.774;9.174;2023-09-30T08:46:33;6.83;;;3.67;;
13463;SDS011;6804;48.774;9.174;2023-09-30T08:49:04;5.70;;;3.60;;
13463;SDS011;6804;48.774;9.174;2023-09-30T08:51:34;6.85;;;4.60;;
13463;SDS011;6804;48.774;9.174;2023-09-30T08:54:04;9.35;;;5.63;;
13463;SDS011;6804;48.774;9.174;2023-09-30T08:56:34;5.40;;;3.43;;
13463;SDS011;6804;48.774;9.174;2023-09-30T08:59:07;7.53;;;4.43;;
13463;SDS011;6804;48.774;9.174;2023-09-30T09:01:38;4.67;;;3.70;;
13463;SDS011;6804;48.774;9.174;2023-09-30T09:04:15;7.20;;;4.37;;
13463;SDS011;6804;48.774;9.174;2023-09-30T09:06:42;6.53;;;4.03;;
13463;SDS011;6804;48.774;9.174;2023-09-30T09:09:14;7.07;;;4.27;;
13463;SDS011;6804;48.774;9.174;2023-09-30T09:11:47;7.53;;;4.00;;
13463;SDS011;6804;48.774;9.174;2023-09-30T09:14:18;6.60;;;4.53;;
13463;SDS011;6804;48.774;9.174;2023-09-30T09:16:52;6.13;;;3.80;;
13463;SDS011;6804;48.774;9.174;2023-09-30T09:19:28;6.30;;;3.90;;
13463;SDS011;6804;48.774;9.174;2023-09-30T09:21:57;8.77;;;4.33;;
13463;SDS011;6804;48.774;9.174;2023-09-30T09:24:29;7.28;;;3.72;;
13463;SDS011;6804;48.774;9.174;2023-09-30T09:27:09;6.13;;;3.50;;
13463;SDS011;6804;48.774;9.174;2023-09-30T09:29:43;4.75;;;3.75;;
13463;SDS011;6804;48.774;9.174;2023-09-30T09:32:12;6.22;;;3.65;;
13463;SDS011;6804;48.774;9.174;2023-09-30T09:34:42;5.88;;;3.30;;
13463;SDS011;6804;48.774;9.174;2023-09-30T09:37:16;5.50;;;3.60;;
13463;SDS011;6804;48.774;9.174;2023-09-30T09:39:51;6.57;;;3.75;;
13463;SDS011;6804;48.774;9.174;2023-09-30T09:42:28;5.20;;;3.03;;
13463;SDS011;6804;48.774;9.174;2023-09-30T09:45:03;5.70;;;3.45;;
13463;SDS011;6804;48.774;9.174;2023-09-30T09:47:38;5.05;;;3.58;;
13463;SDS011;6804;48.774;9.174;2023-09-30T09:50:07;6.65;;;3.45;;
13463;SDS011;6804;48.774;9.174;2023-09-30T09:52:39;4.80;;;3.10;;
13463;SDS011;6804;48.774;9.174;2023-09-30T09:55:13;6.85;;;3.85;;
13463;SDS011;6804;48.774;9.174;2023-09-30T09:57:45;6.43;;;4.45;;
13463;SDS011;6804;48.774;9.174;2023-09-30T10:00:20;6.25;;;4.18;;
13463;SDS011;6804;48.774;9.174;2023-09-30T10:02:57;8.30;;;4.25;;
13463;SDS011;6804;48.774;9.174;2023-09-30T10:05:25;5.25;;;3.45;;
13463;SDS011;6804;48.774;9.174;2023-09-30T10:07:54;4.63;;;3.10;;
13463;SDS011;6804;48.774;9.174;2023-09-30T10:10:27;5.03;;;3.60;;
13463;SDS011;6804;48.774;9.174;2023-09-30T10:12:57;8.27;;;4.97;;
13463;SDS011;6804;48.774;9.174;2023-09-30T10:15:41;5.68;;;3.80;;
13463;SDS011;6804;48.774;9.174;2023-09-30T10:18:19;7.13;;;3.70;;
13463;SDS011;6804;48.774;9.174;2023-09-30T10:20:47;5.82;;;3.30;;
13463;SDS011;6804;48.774;9.174;2023-09-30T10:23:21;5.85;;;4.13;;
13463;SDS011;6804;48.774;9.174;2023-09-30T10:26:13;6.28;;;3.33;;
13463;SDS011;6804;48.774;9.174;2023-09-30T10:28:47;7.53;;;4.70;;
13463;SDS011;6804;48.774;9.174;2023-09-30T10:31:17;6.53;;;4.40;;
13463;SDS011;6804;48.774;9.174;2023-09-30T10:36:50;5.65;;;4.00;;
13463;SDS011;6804;48.774;9.174;2023-09-30T10:48:38;5.00;;;4.13;;
13463;SDS011;6804;48.774;9.174;2023-09-30T10:51:10;7.32;;;4.50;;
13463;SDS011;6804;48.774;9.174;2023-09-30T10:53:48;10.13;;;6.00;;
13463;SDS011;6804;48.774;9.174;2023-09-30T10:56:19;7.45;;;5.32;;
13463;SDS011;6804;48.774;9.174;2023-09-30T10:58:48;9.43;;;5.20;;
13463;SDS011;6804;48.774;9.174;2023-09-30T11:01:17;6.40;;;4.22;;
13463;SDS011;6804;48.774;9.174;2023-09-30T11:03:48;8.05;;;5.28;;
13463;SDS011;6804;48.774;9.174;2023-09-30T11:06:19;6.53;;;4.25;;
13463;SDS011;6804;48.774;9.174;2023-09-30T11:08:51;6.28;;;4.70;;
13463;SDS011;6804;48.774;9.174;2023-09-30T11:11:32;8.45;;;4.82;;
13463;SDS011;6804;48.774;9.174;2023-09-30T11:14:19;5.40;;;4.65;;
13463;SDS011;6804;48.774;9.174;2023-09-30T11:16:48;7.47;;;4.90;;
13463;SDS011;6804;48.774;9.174;2023-09-30T11:19:22;5.85;;;4.10;;
13463;SDS011;6804;48.774;9.174;2023-09-30T11:21:54;7.78;;;5.35;;
13463;SDS011;6804;48.774;9.174;2023-09-30T11:24:24;9.43;;;4.70;;
13463;SDS011;6804;48.774;9.174;2023-09-30T11:26:56;7.82;;;4.88;;
13463;SDS011;6804;48.774;9.174;2023-09-30T11:29:28;7.35;;;4.90;;
13463;SDS011;6804;48.774;9.174;2023-09-30T11:31:57;10.65;;;6.50;;
13463;SDS011;6804;48.774;9.174;2023-09-30T11:34:33;7.57;;;5.78;;
13463;SDS011;6804;48.774;9.174;2023-09-30T11:37:04;6.93;;;4.82;;
13463;SDS011;6804;48.774;9.174;2023-09-30T11:39:36;6.47;;;4.53;;
13463;SDS011;6804;48.774;9.174;2023-09-30T11:42:14;6.15;;;4.50;;
13463;SDS011;6804;48.774;9.174;2023-09-30T11:44:45;9.38;;;4.93;;
13463;SDS011;6804;48.774;9.174;2023-09-30T11:47:15;6.07;;;3.92;;
13463;SDS011;6804;48.774;9.174;2023-09-30T11:50:00;7.47;;;4.60;;
13463;SDS011;6804;48.774;9.174;2023-09-30T11:52:30;10.35;;;5.10;;
13463;SDS011;6804;48.774;9.174;2023-09-30T11:55:04;7.97;;;4.30;;
13463;SDS011;6804;48.774;9.174;2023-09-30T11:57:35;8.80;;;4.65;;
13463;SDS011;6804;48.774;9.174;2023-09-30T12:00:07;6.53;;;4.35;;
13463;SDS011;6804;48.774;9.174;2023-09-30T12:02:40;7.18;;;4.50;;
13463;SDS011;6804;48.774;9.174;2023-09-30T12:05:11;9.40;;;5.03;;
13463;SDS011;6804;48.774;9.174;2023-09-30T12:07:40;9.35;;;5.00;;
13463;SDS011;6804;48.774;9.174;2023-09-30T12:10:11;7.20;;;4.20;;
13463;SDS011;6804;48.774;9.174;2023-09-30T12:12:43;7.40;;;4.40;;
13463;SDS011;6804;48.774;9.174;2023-09-30T12:15:11;9.27;;;4.75;;
13463;SDS011;6804;48.774;9.174;2023-09-30T12:17:41;8.52;;;5.28;;
13463;SDS011;6804;48.774;9.174;2023-09-30T12:20:15;6.47;;;4.50;;
13463;SDS011;6804;48.774;9.174;2023-09-30T12:22:51;9.38;;;4.95;;
13463;SDS011;6804;48.774;9.174;2023-09-30T12:25:23;7.78;;;4.75;;
13463;SDS011;6804;48.774;9.174;2023-09-30T12:27:52;8.02;;;5.00;;
13463;SDS011;6804;48.774;9.174;2023-09-30T12:30:22;7.82;;;5.00;;
13463;SDS011;6804;48.774;9.174;2023-09-30T12:32:53;6.53;;;4.85;;
13463;SDS011;6804;48.774;9.174;2023-09-30T12:35:24;7.65;;;4.88;;
13463;SDS011;6804;48.774;9.174;2023-09-30T12:37:54;9.43;;;5.15;;
13463;SDS011;6804;48.774;9.174;2023-09-30T12:40:23;7.30;;;4.95;;
13463;SDS011;6804;48.774;9.174;2023-09-30T12:45:42;6.78;;;4.63;;
13463;SDS011;6804;48.774;9.174;2023-09-30T12:48:12;9.00;;;5.70;;
13463;SDS011;6804;48.774;9.174;2023-09-30T12:50:44;12.48;;;7.97;;
13463;SDS011;6804;48.774;9.174;2023-09-30T12:53:14;7.68;;;5.18;;
13463;SDS011;6804;48.774;9.174;2023-09-30T12:55:42;9.70;;;8.27;;
13463;SDS011;6804;48.774;9.174;2023-09-30T12:58:12;7.85;;;4.53;;
13463;SDS011;6804;48.774;9.174;2023-09-30T13:00:40;8.18;;;5.97;;
13463;SDS011;6804;48.774;9.174;2023-09-30T13:03:10;11.13;;;9.38;;
13463;SDS011;6804;48.774;9.174;2023-09-30T13:05:46;8.10;;;5.78;;
13463;SDS011;6804;48.774;9.174;2023-09-30T13:08:18;9.05;;;5.88;;
13463;SDS011;6804;48.774;9.174;2023-09-30T13:10:51;7.72;;;5.22;;
13463;SDS011;6804;48.774;9.174;2023-09-30T13:13:21;10.82;;;6.95;;
13463;SDS011;6804;48.774;9.174;2023-09-30T13:15:51;17.95;;;9.40;;
13463;SDS011;6804;48.774;9.174;2023-09-30T13:18:24;7.88;;;5.30;;
13463;SDS011;6804;48.774;9.174;2023-09-30T13:20:54;7.88;;;4.80;;
13463;SDS011;6804;48.774;9.174;2023-09-30T13:23:22;8.80;;;4.60;;
13463;SDS011;6804;48.774;9.174;2023-09-30T13:25:53;10.88;;;6.18;;
13463;SDS011;6804;48.774;9.174;2023-09-30T13:28:21;10.23;;;6.28;;
13463;SDS011;6804;48.774;9.174;2023-09-30T13:30:52;11.18;;;6.65;;
13463;SDS011;6804;48.774;9.174;2023-09-30T13:33:25;8.40;;;4.93;;
13463;SDS011;6804;48.774;9.174;2023-09-30T13:35:55;9.60;;;5.32;;
13463;SDS011;6804;48.774;9.174;2023-09-30T13:38:24;9.52;;;5.78;;
13463;SDS011;6804;48.774;9.174;2023-09-30T13:40:53;11.68;;;8.05;;
13463;SDS011;6804;48.774;9.174;2023-09-30T13:43:23;8.25;;;5.75;;
13463;SDS011;6804;48.774;9.174;2023-09-30T13:45:54;8.43;;;5.00;;
13463;SDS011;6804;48.774;9.174;2023-09-30T13:48:23;6.78;;;4.53;;
13463;SDS011;6804;48.774;9.174;2023-09-30T13:50:52;7.50;;;4.50;;
13463;SDS011;6804;48.774;9.174;2023-09-30T13:56:22;7.68;;;4.60;;
13463;SDS011;6804;48.774;9.174;2023-09-30T13:58:53;6.30;;;4.07;;
13463;SDS011;6804;48.774;9.174;2023-09-30T14:01:23;7.85;;;4.70;;
13463;SDS011;6804;48.774;9.174;2023-09-30T14:03:52;7.50;;;4.85;;
13463;SDS011;6804;48.774;9.174;2023-09-30T14:06:26;8.70;;;5.70;;
13463;SDS011;6804;48.774;9.174;2023-09-30T14:08:56;11.75;;;7.57;;
13463;SDS011;6804;48.774;9.174;2023-09-30T14:11:26;10.38;;;4.63;;
13463;SDS011;6804;48.774;9.174;2023-09-30T14:13:56;9.23;;;6.07;;
13463;SDS011;6804;48.774;9.174;2023-09-30T14:16:26;10.00;;;6.72;;
13463;SDS011;6804;48.774;9.174;2023-09-30T14:18:55;12.88;;;9.00;;
13463;SDS011;6804;48.774;9.174;2023-09-30T14:21:24;10.52;;;7.47;;
13463;SDS011;6804;48.774;9.174;2023-09-30T14:23:54;7.72;;;5.32;;
13463;SDS011;6804;48.774;9.174;2023-09-30T14:26:23;26.35;;;18.02;;
13463;SDS011;6804;48.774;9.174;2023-09-30T14:28:52;9.48;;;5.97;;
13463;SDS011;6804;48.774;9.174;2023-09-30T14:31:28;9.60;;;4.97;;
13463;SDS011;6804;48.774;9.174;2023-09-30T14:33:57;9.05;;;5.25;;
13463;SDS011;6804;48.774;9.174;2023-09-30T14:36:28;8.35;;;4.68;;
13463;SDS011;6804;48.774;9.174;2023-09-30T14:39:06;8.43;;;5.45;;
13463;SDS011;6804;48.774;9.174;2023-09-30T14:41:36;9.07;;;6.03;;
13463;SDS011;6804;48.774;9.174;2023-09-30T14:44:05;11.25;;;7.82;;
13463;SDS011;6804;48.774;9.174;2023-09-30T14:46:37;8.48;;;6.32;;
13463;SDS011;6804;48.774;9.174;2023-09-30T14:49:07;10.68;;;7.10;;
13463;SDS011;6804;48.774;9.174;2023-09-30T14:51:38;8.85;;;5.25;;
13463;SDS011;6804;48.774;9.174;2023-09-30T14:54:06;7.88;;;4.78;;
13463;SDS011;6804;48.774;9.174;2023-09-30T14:56:36;10.88;;;6.38;;
13463;SDS011;6804;48.774;9.174;2023-09-30T14:59:05;8.02;;;4.90;;
13463;SDS011;6804;48.774;9.174;2023-09-30T15:01:33;9.85;;;5.88;;
13463;SDS011;6804;48.774;9.174;2023-09-30T15:04:09;8.70;;;6.07;;
13463;SDS011;6804;48.774;9.174;2023-09-30T15:06:39;7.32;;;5.35;;
13463;SDS011;6804;48.774;9.174;2023-09-30T15:09:13;9.98;;;5.10;;
13463;SDS011;6804;48.774;9.174;2023-09-30T15:11:48;8.75;;;4.70;;
13463;SDS011;6804;48.774;9.174;2023-09-30T15:14:16;12.38;;;9.23;;
13463;SDS011;6804;48.774;9.174;2023-09-30T15:16:46;10.65;;;6.55;;
13463;SDS011;6804;48.774;9.174;2023-09-30T15:19:17;9.98;;;6.95;;
13463;SDS011;6804;48.774;9.174;2023-09-30T15:21:48;9.38;;;5.75;;
13463;SDS011;6804;48.774;9.174;2023-09-30T15:24:18;9.85;;;6.65;;
13463;SDS011;6804;48.774;9.174;2023-09-30T15:26:47;10.40;;;6.88;;
13463;SDS011;6804;48.774;9.174;2023-09-30T15:29:17;10.10;;;6.30;;
13463;SDS011;6804;48.774;9.174;2023-09-30T15:31:49;13.87;;;9.43;;
13463;SDS011;6804;48.774;9.174;2023-09-30T15:34:19;15.10;;;9.50;;
13463;SDS011;6804;48.774;9.174;2023-09-30T15:36:59;14.27;;;9.30;;
13463;SDS011;6804;48.774;9.174;2023-09-30T15:39:32;10.35;;;8.38;;
13463;SDS011;6804;48.774;9.174;2023-09-30T15:42:07;21.80;;;13.95;;
13463;SDS011;6804;48.774;9.174;2023-09-30T15:44:37;25.50;;;19.17;;
13463;SDS011;6804;48.774;9.174;2023-09-30T15:47:09;13.33;;;9.47;;
13463;SDS011;6804;48.774;9.174;2023-09-30T15:49:40;14.53;;;9.37;;
13463;SDS011;6804;48.774;9.174;2023-09-30T15:52:14;13.00;;;9.23;;
13463;SDS011;6804;48.774;9.174;2023-09-30T15:57:33;10.43;;;7.65;;
13463;SDS011;6804;48.774;9.174;2023-09-30T16:00:09;13.70;;;9.98;;
13463;SDS011;6804;48.774;9.174;2023-09-30T16:02:53;24.92;;;19.50;;
13463;SDS011;6804;48.774;9.174;2023-09-30T16:05:23;17.85;;;15.45;;
13463;SDS011;6804;48.774;9.174;2023-09-30T16:08:00;9.70;;;6.10;;
13463;SDS011;6804;48.774;9.174;2023-09-30T16:10:30;12.57;;;8.55;;